Time,TemperatureF,DewpointF,PressureIn,WindDirection,WindDirectionDegrees,WindSpeedMPH,WindSpeedGustMPH,Humidity,HourlyPrecipIn,Conditions,Clouds,dailyrainin,SoftwareType,DateUTC
2013-07-14 00:12:00,70.0,67.6,30.00,ENE,67,3.2,-999.0,92,-99.99,,,0.01,Acu-Link.com,2013-07-14 05:12:00,
2013-07-14 00:27:00,69.8,67.4,30.00,South,180,1.7,-999.0,92,-99.99,,,0.02,Acu-Link.com,2013-07-14 05:27:00,
2013-07-14 00:42:00,69.6,67.2,30.01,South,180,1.7,-999.0,92,-99.99,,,0.02,Acu-Link.com,2013-07-14 05:42:00,
2013-07-14 00:57:00,69.1,67.0,30.02,SSW,202,1.1,-999.0,93,-99.99,,,0.03,Acu-Link.com,2013-07-14 05:57:00,
2013-07-14 01:12:00,69.1,67.0,30.03,SE,135,1.7,-999.0,93,-99.99,,,0.03,Acu-Link.com,2013-07-14 06:12:00,
2013-07-14 01:28:00,68.9,66.2,30.03,SE,135,6.8,-999.0,91,-99.99,,,0.03,Acu-Link.com,2013-07-14 06:28:00,
2013-07-14 01:43:00,69.1,65.4,30.02,SSE,157,5.3,-999.0,88,-99.99,,,0.03,Acu-Link.com,2013-07-14 06:43:00,
2013-07-14 01:58:00,68.7,65.0,30.03,South,180,3.7,-999.0,88,-99.99,,,0.03,Acu-Link.com,2013-07-14 06:58:00,
2013-07-14 02:13:00,68.7,64.7,30.03,SSE,157,6.3,-999.0,87,-99.99,,,0.03,Acu-Link.com,2013-07-14 07:13:00,
2013-07-14 02:28:00,68.5,64.8,30.03,South,180,2.7,-999.0,88,-99.99,,,0.03,Acu-Link.com,2013-07-14 07:28:00,
2013-07-14 02:44:00,68.5,64.5,30.03,ESE,112,3.7,-999.0,87,-99.99,,,0.03,Acu-Link.com,2013-07-14 07:44:00,
2013-07-14 02:59:00,68.2,64.2,30.03,SSW,202,1.7,-999.0,87,-99.99,,,0.03,Acu-Link.com,2013-07-14 07:59:00,
2013-07-14 03:14:00,68.2,64.2,30.03,South,180,1.1,-999.0,87,-99.99,,,0.03,Acu-Link.com,2013-07-14 08:14:00,
2013-07-14 03:30:00,67.8,63.8,30.03,SSE,157,0.0,-999.0,87,-99.99,,,0.03,Acu-Link.com,2013-07-14 08:30:00,
2013-07-14 03:45:00,67.6,64.2,30.03,SSW,202,1.7,-999.0,89,-99.99,,,0.03,Acu-Link.com,2013-07-14 08:45:00,
2013-07-14 04:00:00,66.9,64.5,30.03,ESE,112,1.7,-999.0,92,-99.99,,,0.03,Acu-Link.com,2013-07-14 09:00:00,
2013-07-14 04:15:00,66.6,64.2,30.03,SSE,157,0.0,-999.0,92,-99.99,,,0.03,Acu-Link.com,2013-07-14 09:15:00,
2013-07-14 04:30:00,66.4,64.6,30.04,ESE,112,1.7,-999.0,94,-99.99,,,0.03,Acu-Link.com,2013-07-14 09:30:00,
2013-07-14 04:45:00,67.6,63.6,30.04,SSE,157,3.7,-999.0,87,-99.99,,,0.03,Acu-Link.com,2013-07-14 09:45:00,
2013-07-14 05:00:00,67.3,63.3,30.04,ESE,112,5.3,-999.0,87,-99.99,,,0.03,Acu-Link.com,2013-07-14 10:00:00,
2013-07-14 05:15:00,67.3,63.0,30.05,South,180,5.8,-999.0,86,-99.99,,,0.03,Acu-Link.com,2013-07-14 10:15:00,
2013-07-14 05:31:00,66.9,62.9,30.05,South,180,3.2,-999.0,87,-99.99,,,0.03,Acu-Link.com,2013-07-14 10:31:00,
2013-07-14 05:46:00,66.9,62.9,30.05,SSE,157,2.2,-999.0,87,-99.99,,,0.03,Acu-Link.com,2013-07-14 10:46:00,
2013-07-14 06:01:00,66.7,63.0,30.05,South,180,6.3,-999.0,88,-99.99,,,0.03,Acu-Link.com,2013-07-14 11:01:00,
2013-07-14 06:16:00,66.7,63.4,30.04,SE,135,2.7,-999.0,89,-99.99,,,0.03,Acu-Link.com,2013-07-14 11:16:00,
2013-07-14 06:32:00,66.7,63.4,30.04,SE,135,4.7,-999.0,89,-99.99,,,0.03,Acu-Link.com,2013-07-14 11:32:00,
2013-07-14 06:47:00,67.6,63.9,30.04,SSE,157,3.7,-999.0,88,-99.99,,,0.03,Acu-Link.com,2013-07-14 11:47:00,
2013-07-14 07:02:00,69.3,64.3,30.05,SSE,157,2.2,-999.0,84,-99.99,,,0.03,Acu-Link.com,2013-07-14 12:02:00,
2013-07-14 07:17:00,69.8,64.4,30.05,ESE,112,4.2,-999.0,83,-99.99,,,0.03,Acu-Link.com,2013-07-14 12:17:00,
2013-07-14 07:32:00,73.4,65.4,30.04,SSE,157,2.2,-999.0,76,-99.99,,,0.03,Acu-Link.com,2013-07-14 12:32:00,
2013-07-14 07:48:00,75.0,65.3,30.05,ESE,112,6.3,-999.0,72,-99.99,,,0.03,Acu-Link.com,2013-07-14 12:48:00,
2013-07-14 08:03:00,75.6,65.5,30.06,East,90,4.2,-999.0,71,-99.99,,,0.03,Acu-Link.com,2013-07-14 13:03:00,
2013-07-14 08:18:00,76.6,66.1,30.06,ESE,112,4.7,-999.0,70,-99.99,,,0.03,Acu-Link.com,2013-07-14 13:18:00,
2013-07-14 08:33:00,77.4,65.6,30.06,NE,45,5.3,-999.0,67,-99.99,,,0.03,Acu-Link.com,2013-07-14 13:33:00,
2013-07-14 08:48:00,81.1,66.4,30.06,ESE,112,4.2,-999.0,61,-99.99,,,0.03,Acu-Link.com,2013-07-14 13:48:00,
2013-07-14 09:04:00,82.2,66.4,30.06,ESE,112,4.2,-999.0,59,-99.99,,,0.03,Acu-Link.com,2013-07-14 14:04:00,
2013-07-14 09:19:00,79.2,66.0,30.06,SE,135,4.2,-999.0,64,-99.99,,,0.03,Acu-Link.com,2013-07-14 14:19:00,
2013-07-14 09:34:00,79.3,65.1,30.07,South,180,3.7,-999.0,62,-99.99,,,0.03,Acu-Link.com,2013-07-14 14:34:00,
2013-07-14 09:49:00,80.2,65.5,30.07,South,180,6.8,-999.0,61,-99.99,,,0.03,Acu-Link.com,2013-07-14 14:49:00,
2013-07-14 10:05:00,82.8,66.0,30.07,SSE,157,7.8,-999.0,57,-99.99,,,0.03,Acu-Link.com,2013-07-14 15:05:00,
2013-07-14 10:20:00,84.4,66.4,30.07,SSE,157,6.3,-999.0,55,-99.99,,,0.03,Acu-Link.com,2013-07-14 15:20:00,
2013-07-14 10:35:00,85.8,66.1,30.07,South,180,5.3,-999.0,52,-99.99,,,0.03,Acu-Link.com,2013-07-14 15:35:00,
2013-07-14 10:50:00,86.4,65.5,30.08,ESE,112,6.3,-999.0,50,-99.99,,,0.03,Acu-Link.com,2013-07-14 15:50:00,
2013-07-14 11:06:00,87.8,66.2,30.08,ESE,112,8.9,-999.0,49,-99.99,,,0.03,Acu-Link.com,2013-07-14 16:06:00,
2013-07-14 11:21:00,85.8,64.4,30.08,SSW,202,6.8,-999.0,49,-99.99,,,0.03,Acu-Link.com,2013-07-14 16:21:00,
2013-07-14 11:36:00,88.0,65.2,30.07,SSE,157,6.3,-999.0,47,-99.99,,,0.03,Acu-Link.com,2013-07-14 16:36:00,
2013-07-14 11:51:00,86.0,64.6,30.08,South,180,7.3,-999.0,49,-99.99,,,0.03,Acu-Link.com,2013-07-14 16:51:00,
2013-07-14 12:07:00,88.0,65.2,30.08,SE,135,11.4,-999.0,47,-99.99,,,0.03,Acu-Link.com,2013-07-14 17:07:00,
2013-07-14 12:22:00,87.4,65.3,30.08,ESE,112,6.3,-999.0,48,-99.99,,,0.03,Acu-Link.com,2013-07-14 17:22:00,
2013-07-14 12:37:00,87.3,64.6,30.09,South,180,7.3,-999.0,47,-99.99,,,0.03,Acu-Link.com,2013-07-14 17:37:00,
2013-07-14 12:52:00,88.3,62.9,30.08,ESE,112,10.4,-999.0,43,-99.99,,,0.03,Acu-Link.com,2013-07-14 17:52:00,
2013-07-14 13:08:00,88.5,65.7,30.09,SSE,157,4.7,-999.0,47,-99.99,,,0.03,Acu-Link.com,2013-07-14 18:08:00,
2013-07-14 13:23:00,87.8,64.4,30.09,ESE,112,6.8,-999.0,46,-99.99,,,0.03,Acu-Link.com,2013-07-14 18:23:00,
2013-07-14 13:38:00,89.1,65.0,30.09,South,180,7.3,-999.0,45,-99.99,,,0.03,Acu-Link.com,2013-07-14 18:38:00,
2013-07-14 13:53:00,88.7,64.6,30.08,SE,135,7.3,-999.0,45,-99.99,,,0.03,Acu-Link.com,2013-07-14 18:53:00,
2013-07-14 14:09:00,90.7,64.4,30.08,South,180,8.3,-999.0,42,-99.99,,,0.03,Acu-Link.com,2013-07-14 19:09:00,
2013-07-14 14:24:00,89.8,65.6,30.08,South,180,6.8,-999.0,45,-99.99,,,0.03,Acu-Link.com,2013-07-14 19:24:00,
2013-07-14 14:39:00,90.5,64.9,30.08,SW,225,5.8,-999.0,43,-99.99,,,0.03,Acu-Link.com,2013-07-14 19:39:00,
2013-07-14 14:54:00,92.3,65.8,30.08,SSW,202,7.3,-999.0,42,-99.99,,,0.03,Acu-Link.com,2013-07-14 19:54:00,
2013-07-14 15:10:00,89.8,64.9,30.08,SE,135,7.3,-999.0,44,-99.99,,,0.03,Acu-Link.com,2013-07-14 20:10:00,
2013-07-14 15:25:00,90.5,64.9,30.08,South,180,3.7,-999.0,43,-99.99,,,0.03,Acu-Link.com,2013-07-14 20:25:00,
2013-07-14 15:40:00,91.4,65.7,30.08,South,180,8.3,-999.0,43,-99.99,,,0.03,Acu-Link.com,2013-07-14 20:40:00,
2013-07-14 15:55:00,90.9,65.3,30.08,SSW,202,8.9,-999.0,43,-99.99,,,0.03,Acu-Link.com,2013-07-14 20:55:00,
2013-07-14 16:11:00,93.2,65.9,30.08,South,180,4.2,-999.0,41,-99.99,,,0.03,Acu-Link.com,2013-07-14 21:11:00,
2013-07-14 16:26:00,92.7,64.8,30.08,South,180,2.7,-999.0,40,-99.99,,,0.03,Acu-Link.com,2013-07-14 21:26:00,
2013-07-14 16:41:00,92.3,65.1,30.07,SE,135,3.2,-999.0,41,-99.99,,,0.03,Acu-Link.com,2013-07-14 21:41:00,
2013-07-14 16:56:00,90.0,65.1,30.07,ESE,112,5.3,-999.0,44,-99.99,,,0.03,Acu-Link.com,2013-07-14 21:56:00,
2013-07-14 17:11:00,90.3,65.4,30.07,South,180,2.7,-999.0,44,-99.99,,,0.03,Acu-Link.com,2013-07-14 22:11:00,
2013-07-14 17:27:00,91.9,64.1,30.08,ESE,112,6.8,-999.0,40,-99.99,,,0.03,Acu-Link.com,2013-07-14 22:27:00,
2013-07-14 17:42:00,91.9,64.1,30.07,ESE,112,4.7,-999.0,40,-99.99,,,0.03,Acu-Link.com,2013-07-14 22:42:00,
2013-07-14 17:57:00,89.2,64.4,30.07,SSE,157,5.8,-999.0,44,-99.99,,,0.03,Acu-Link.com,2013-07-14 22:57:00,
2013-07-14 18:12:00,87.6,64.8,30.07,SW,225,2.7,-999.0,47,-99.99,,,0.03,Acu-Link.com,2013-07-14 23:12:00,
2013-07-14 18:27:00,86.9,64.2,30.07,SSE,157,3.7,-999.0,47,-99.99,,,0.03,Acu-Link.com,2013-07-14 23:27:00,
2013-07-14 18:43:00,85.3,63.4,30.07,ESE,112,6.3,-999.0,48,-99.99,,,0.03,Acu-Link.com,2013-07-14 23:43:00,
2013-07-14 18:58:00,84.6,63.9,30.07,ESE,112,5.3,-999.0,50,-99.99,,,0.03,Acu-Link.com,2013-07-14 23:58:00,
2013-07-14 19:13:00,82.8,64.4,30.07,South,180,2.7,-999.0,54,-99.99,,,0.03,Acu-Link.com,2013-07-15 00:13:00,
2013-07-14 19:28:00,81.1,65.4,30.08,ESE,112,1.1,-999.0,59,-99.99,,,0.03,Acu-Link.com,2013-07-15 00:28:00,
2013-07-14 19:43:00,80.1,65.4,30.08,SSE,157,0.0,-999.0,61,-99.99,,,0.03,Acu-Link.com,2013-07-15 00:43:00,
2013-07-14 19:59:00,79.0,65.3,30.08,ESE,112,2.7,-999.0,63,-99.99,,,0.03,Acu-Link.com,2013-07-15 00:59:00,
2013-07-14 20:14:00,77.9,64.7,30.08,SSE,157,2.2,-999.0,64,-99.99,,,0.03,Acu-Link.com,2013-07-15 01:14:00,
2013-07-14 20:29:00,76.6,64.4,30.09,SE,135,2.2,-999.0,66,-99.99,,,0.03,Acu-Link.com,2013-07-15 01:29:00,
2013-07-14 20:44:00,75.4,63.2,30.09,SSE,157,2.7,-999.0,66,-99.99,,,0.03,Acu-Link.com,2013-07-15 01:44:00,
2013-07-14 21:00:00,74.3,63.0,30.10,South,180,2.2,-999.0,68,-99.99,,,0.03,Acu-Link.com,2013-07-15 02:00:00,
2013-07-14 21:15:00,74.3,63.0,30.11,South,180,1.7,-999.0,68,-99.99,,,0.03,Acu-Link.com,2013-07-15 02:15:00,
2013-07-14 21:30:00,74.1,62.8,30.12,South,180,2.2,-999.0,68,-99.99,,,0.03,Acu-Link.com,2013-07-15 02:30:00,
2013-07-14 21:45:00,73.8,63.0,30.12,ESE,112,2.2,-999.0,69,-99.99,,,0.03,Acu-Link.com,2013-07-15 02:45:00,
2013-07-14 22:00:00,73.0,62.6,30.13,SSW,202,1.7,-999.0,70,-99.99,,,0.03,Acu-Link.com,2013-07-15 03:00:00,
2013-07-14 22:16:00,72.7,62.7,30.13,SSW,202,0.0,-999.0,71,-99.99,,,0.03,Acu-Link.com,2013-07-15 03:16:00,
2013-07-14 22:31:00,71.8,62.3,30.14,SE,135,0.0,-999.0,72,-99.99,,,0.03,Acu-Link.com,2013-07-15 03:31:00,
2013-07-14 22:46:00,71.4,61.9,30.15,ESE,112,0.0,-999.0,72,-99.99,,,0.03,Acu-Link.com,2013-07-15 03:46:00,
2013-07-14 23:01:00,71.2,62.5,30.15,SE,135,1.7,-999.0,74,-99.99,,,0.03,Acu-Link.com,2013-07-15 04:01:00,
2013-07-14 23:16:00,70.7,62.8,30.16,South,180,1.7,-999.0,76,-99.99,,,0.03,Acu-Link.com,2013-07-15 04:16:00,
2013-07-14 23:32:00,70.5,62.6,30.16,SSW,202,1.7,-999.0,76,-99.99,,,0.03,Acu-Link.com,2013-07-15 04:32:00,
2013-07-14 23:47:00,70.0,62.1,30.17,South,180,0.0,-999.0,76,-99.99,,,0.03,Acu-Link.com,2013-07-15 04:47:00,